sensor_id;sensor_type;location;lat;lon;timestamp;temperature;humidity
56044;DHT22;41912;51.022;3.664;2024-03-17T00:00:14;10.80;99.90
56044;DHT22;41912;51.022;3.664;2024-03-17T00:02:41;10.80;99.90
56044;DHT22;41912;51.022;3.664;2024-03-17T00:05:07;10.80;99.90
56044;DHT22;41912;51.022;3.664;2024-03-17T00:07:32;10.80;99.90
56044;DHT22;41912;51.022;3.664;2024-03-17T00:09:58;10.80;99.90
56044;DHT22;41912;51.022;3.664;2024-03-17T00:12:24;10.80;99.90
56044;DHT22;41912;51.022;3.664;2024-03-17T00:14:49;10.80;99.90
56044;DHT22;41912;51.022;3.664;2024-03-17T00:17:15;10.80;99.90
56044;DHT22;41912;51.022;3.664;2024-03-17T00:19:41;10.80;99.90
56044;DHT22;41912;51.022;3.664;2024-03-17T00:22:06;10.80;99.90
56044;DHT22;41912;51.022;3.664;2024-03-17T00:24:34;10.80;99.90
56044;DHT22;41912;51.022;3.664;2024-03-17T00:27:03;10.70;99.90
56044;DHT22;41912;51.022;3.664;2024-03-17T00:29:28;10.70;99.90
56044;DHT22;41912;51.022;3.664;2024-03-17T00:31:54;10.70;99.90
56044;DHT22;41912;51.022;3.664;2024-03-17T00:34:20;10.70;99.90
56044;DHT22;41912;51.022;3.664;2024-03-17T00:36:46;10.70;99.90
56044;DHT22;41912;51.022;3.664;2024-03-17T00:39:12;10.70;99.90
56044;DHT22;41912;51.022;3.664;2024-03-17T00:41:38;10.70;99.90
56044;DHT22;41912;51.022;3.664;2024-03-17T00:44:04;10.80;99.90
56044;DHT22;41912;51.022;3.664;2024-03-17T00:46:29;10.70;99.90
56044;DHT22;41912;51.022;3.664;2024-03-17T00:48:55;10.70;99.90
56044;DHT22;41912;51.022;3.664;2024-03-17T00:51:21;10.70;99.90
56044;DHT22;41912;51.022;3.664;2024-03-17T00:53:47;10.70;99.90
56044;DHT22;41912;51.022;3.664;2024-03-17T00:56:12;10.70;99.90
56044;DHT22;41912;51.022;3.664;2024-03-17T00:58:38;10.70;99.90
56044;DHT22;41912;51.022;3.664;2024-03-17T01:01:04;10.70;99.90
56044;DHT22;41912;51.022;3.664;2024-03-17T01:03:29;10.60;99.90
56044;DHT22;41912;51.022;3.664;2024-03-17T01:05:55;10.70;99.90
56044;DHT22;41912;51.022;3.664;2024-03-17T01:08:21;10.70;99.90
56044;DHT22;41912;51.022;3.664;2024-03-17T01:10:48;10.70;99.90
56044;DHT22;41912;51.022;3.664;2024-03-17T01:13:17;10.70;99.90
56044;DHT22;41912;51.022;3.664;2024-03-17T01:15:43;10.70;99.90
56044;DHT22;41912;51.022;3.664;2024-03-17T01:18:09;10.70;99.90
56044;DHT22;41912;51.022;3.664;2024-03-17T01:20:36;10.70;99.90
56044;DHT22;41912;51.022;3.664;2024-03-17T01:23:02;10.70;99.90
56044;DHT22;41912;51.022;3.664;2024-03-17T01:25:28;10.70;99.90
56044;DHT22;41912;51.022;3.664;2024-03-17T01:27:55;10.70;99.90
56044;DHT22;41912;51.022;3.664;2024-03-17T01:30:22;10.60;99.90
56044;DHT22;41912;51.022;3.664;2024-03-17T01:32:47;10.60;99.90
56044;DHT22;41912;51.022;3.664;2024-03-17T01:35:14;10.60;99.90
56044;DHT22;41912;51.022;3.664;2024-03-17T01:37:40;10.60;99.90
56044;DHT22;41912;51.022;3.664;2024-03-17T01:40:06;10.60;99.90
56044;DHT22;41912;51.022;3.664;2024-03-17T01:42:39;10.60;99.90
56044;DHT22;41912;51.022;3.664;2024-03-17T01:47:46;10.50;99.90
56044;DHT22;41912;51.022;3.664;2024-03-17T01:50:12;10.50;99.90
56044;DHT22;41912;51.022;3.664;2024-03-17T01:52:39;10.50;99.90
56044;DHT22;41912;51.022;3.664;2024-03-17T01:55:05;10.50;99.90
56044;DHT22;41912;51.022;3.664;2024-03-17T01:57:31;10.50;99.90
56044;DHT22;41912;51.022;3.664;2024-03-17T01:59:57;10.50;99.90
56044;DHT22;41912;51.022;3.664;2024-03-17T02:02:23;10.50;99.90
56044;DHT22;41912;51.022;3.664;2024-03-17T02:04:49;10.40;99.90
56044;DHT22;41912;51.022;3.664;2024-03-17T02:07:15;10.40;99.90
56044;DHT22;41912;51.022;3.664;2024-03-17T02:09:41;10.40;99.90
56044;DHT22;41912;51.022;3.664;2024-03-17T02:12:09;10.40;99.90
56044;DHT22;41912;51.022;3.664;2024-03-17T02:14:35;10.40;99.90
56044;DHT22;41912;51.022;3.664;2024-03-17T02:17:01;10.40;99.90
56044;DHT22;41912;51.022;3.664;2024-03-17T02:19:27;10.40;99.90
56044;DHT22;41912;51.022;3.664;2024-03-17T02:21:53;10.40;99.90
56044;DHT22;41912;51.022;3.664;2024-03-17T02:24:18;10.40;99.90
56044;DHT22;41912;51.022;3.664;2024-03-17T02:26:44;10.40;99.90
56044;DHT22;41912;51.022;3.664;2024-03-17T02:29:10;10.40;99.90
56044;DHT22;41912;51.022;3.664;2024-03-17T02:31:35;10.30;99.90
56044;DHT22;41912;51.022;3.664;2024-03-17T02:34:01;10.30;99.90
56044;DHT22;41912;51.022;3.664;2024-03-17T02:36:27;10.30;99.90
56044;DHT22;41912;51.022;3.664;2024-03-17T02:38:53;10.30;99.90
56044;DHT22;41912;51.022;3.664;2024-03-17T02:41:37;10.30;99.90
56044;DHT22;41912;51.022;3.664;2024-03-17T02:44:03;10.30;99.90
56044;DHT22;41912;51.022;3.664;2024-03-17T02:46:28;10.30;99.90
56044;DHT22;41912;51.022;3.664;2024-03-17T02:48:54;10.30;99.90
56044;DHT22;41912;51.022;3.664;2024-03-17T02:51:21;10.20;99.90
56044;DHT22;41912;51.022;3.664;2024-03-17T02:53:48;10.20;99.90
56044;DHT22;41912;51.022;3.664;2024-03-17T02:56:15;10.20;99.90
56044;DHT22;41912;51.022;3.664;2024-03-17T02:58:45;10.20;99.90
56044;DHT22;41912;51.022;3.664;2024-03-17T03:01:17;10.20;99.90
56044;DHT22;41912;51.022;3.664;2024-03-17T03:03:44;10.10;99.90
56044;DHT22;41912;51.022;3.664;2024-03-17T03:06:10;10.20;99.90
56044;DHT22;41912;51.022;3.664;2024-03-17T03:08:40;10.10;99.90
56044;DHT22;41912;51.022;3.664;2024-03-17T03:11:10;10.20;99.90
56044;DHT22;41912;51.022;3.664;2024-03-17T03:13:41;10.20;99.90
56044;DHT22;41912;51.022;3.664;2024-03-17T03:16:09;10.10;99.90
56044;DHT22;41912;51.022;3.664;2024-03-17T03:18:36;10.10;99.90
56044;DHT22;41912;51.022;3.664;2024-03-17T03:21:02;10.10;99.90
56044;DHT22;41912;51.022;3.664;2024-03-17T03:23:28;10.10;99.90
56044;DHT22;41912;51.022;3.664;2024-03-17T03:25:57;10.10;99.90
56044;DHT22;41912;51.022;3.664;2024-03-17T03:28:24;10.10;99.90
56044;DHT22;41912;51.022;3.664;2024-03-17T03:30:50;10.10;99.90
56044;DHT22;41912;51.022;3.664;2024-03-17T03:33:17;10.10;99.90
56044;DHT22;41912;51.022;3.664;2024-03-17T03:35:43;10.10;99.90
56044;DHT22;41912;51.022;3.664;2024-03-17T03:38:09;10.10;99.90
56044;DHT22;41912;51.022;3.664;2024-03-17T03:40:35;10.10;99.90
56044;DHT22;41912;51.022;3.664;2024-03-17T03:43:00;10.10;99.90
56044;DHT22;41912;51.022;3.664;2024-03-17T03:45:26;10.10;99.90
56044;DHT22;41912;51.022;3.664;2024-03-17T03:47:52;10.10;99.90
56044;DHT22;41912;51.022;3.664;2024-03-17T03:50:20;10.00;99.90
56044;DHT22;41912;51.022;3.664;2024-03-17T03:52:46;10.00;99.90
56044;DHT22;41912;51.022;3.664;2024-03-17T03:55:12;10.00;99.90
56044;DHT22;41912;51.022;3.664;2024-03-17T03:57:44;10.00;99.90
56044;DHT22;41912;51.022;3.664;2024-03-17T04:00:16;10.00;99.90
56044;DHT22;41912;51.022;3.664;2024-03-17T04:02:44;10.00;99.90
56044;DHT22;41912;51.022;3.664;2024-03-17T04:05:10;10.00;99.90
56044;DHT22;41912;51.022;3.664;2024-03-17T04:07:38;10.00;99.90
56044;DHT22;41912;51.022;3.664;2024-03-17T04:10:05;10.00;99.90
56044;DHT22;41912;51.022;3.664;2024-03-17T04:12:31;10.00;99.90
56044;DHT22;41912;51.022;3.664;2024-03-17T04:14:57;10.00;99.90
56044;DHT22;41912;51.022;3.664;2024-03-17T04:17:23;9.90;99.90
56044;DHT22;41912;51.022;3.664;2024-03-17T04:19:50;9.90;99.90
56044;DHT22;41912;51.022;3.664;2024-03-17T04:22:17;9.90;99.90
56044;DHT22;41912;51.022;3.664;2024-03-17T04:24:46;10.00;99.90
56044;DHT22;41912;51.022;3.664;2024-03-17T04:27:13;10.00;99.90
56044;DHT22;41912;51.022;3.664;2024-03-17T04:29:39;9.90;99.90
56044;DHT22;41912;51.022;3.664;2024-03-17T04:32:06;10.00;99.90
56044;DHT22;41912;51.022;3.664;2024-03-17T04:34:32;9.90;99.90
56044;DHT22;41912;51.022;3.664;2024-03-17T04:36:58;9.90;99.90
56044;DHT22;41912;51.022;3.664;2024-03-17T04:39:25;10.00;99.90
56044;DHT22;41912;51.022;3.664;2024-03-17T04:41:51;9.90;99.90
56044;DHT22;41912;51.022;3.664;2024-03-17T04:44:17;9.90;99.90
56044;DHT22;41912;51.022;3.664;2024-03-17T04:46:43;9.90;99.90
56044;DHT22;41912;51.022;3.664;2024-03-17T04:49:09;10.00;99.90
56044;DHT22;41912;51.022;3.664;2024-03-17T04:51:35;10.00;99.90
56044;DHT22;41912;51.022;3.664;2024-03-17T04:54:03;9.90;99.90
56044;DHT22;41912;51.022;3.664;2024-03-17T04:56:29;9.90;99.90
56044;DHT22;41912;51.022;3.664;2024-03-17T04:58:55;9.90;99.90
56044;DHT22;41912;51.022;3.664;2024-03-17T05:01:21;10.00;99.90
56044;DHT22;41912;51.022;3.664;2024-03-17T05:03:47;10.00;99.90
56044;DHT22;41912;51.022;3.664;2024-03-17T05:06:12;9.90;99.90
56044;DHT22;41912;51.022;3.664;2024-03-17T05:08:38;9.90;99.90
56044;DHT22;41912;51.022;3.664;2024-03-17T05:11:05;9.90;99.90
56044;DHT22;41912;51.022;3.664;2024-03-17T05:13:31;9.90;99.90
56044;DHT22;41912;51.022;3.664;2024-03-17T05:15:57;9.90;99.90
56044;DHT22;41912;51.022;3.664;2024-03-17T05:18:23;9.90;99.90
56044;DHT22;41912;51.022;3.664;2024-03-17T05:21:04;9.90;99.90
56044;DHT22;41912;51.022;3.664;2024-03-17T05:23:31;9.90;99.90
56044;DHT22;41912;51.022;3.664;2024-03-17T05:25:58;9.90;99.90
56044;DHT22;41912;51.022;3.664;2024-03-17T05:28:25;9.90;99.90
56044;DHT22;41912;51.022;3.664;2024-03-17T05:30:51;9.90;99.90
56044;DHT22;41912;51.022;3.664;2024-03-17T05:33:18;9.90;99.90
56044;DHT22;41912;51.022;3.664;2024-03-17T05:35:56;9.90;99.90
56044;DHT22;41912;51.022;3.664;2024-03-17T05:38:23;9.90;99.90
56044;DHT22;41912;51.022;3.664;2024-03-17T05:41:03;9.90;99.90
56044;DHT22;41912;51.022;3.664;2024-03-17T05:43:30;9.90;99.90
56044;DHT22;41912;51.022;3.664;2024-03-17T05:46:00;9.90;99.90
56044;DHT22;41912;51.022;3.664;2024-03-17T05:48:29;9.90;99.90
56044;DHT22;41912;51.022;3.664;2024-03-17T05:50:54;9.80;99.90
56044;DHT22;41912;51.022;3.664;2024-03-17T05:53:21;9.80;99.90
56044;DHT22;41912;51.022;3.664;2024-03-17T05:55:49;9.90;99.90
56044;DHT22;41912;51.022;3.664;2024-03-17T05:58:16;9.90;99.90
56044;DHT22;41912;51.022;3.664;2024-03-17T06:00:41;9.90;99.90
56044;DHT22;41912;51.022;3.664;2024-03-17T06:03:08;9.90;99.90
56044;DHT22;41912;51.022;3.664;2024-03-17T06:05:38;9.90;99.90
56044;DHT22;41912;51.022;3.664;2024-03-17T06:08:06;10.00;99.90
56044;DHT22;41912;51.022;3.664;2024-03-17T06:10:35;9.90;99.90
56044;DHT22;41912;51.022;3.664;2024-03-17T06:13:01;10.00;99.90
56044;DHT22;41912;51.022;3.664;2024-03-17T06:15:27;10.00;99.90
56044;DHT22;41912;51.022;3.664;2024-03-17T06:17:53;10.00;99.90
56044;DHT22;41912;51.022;3.664;2024-03-17T06:20:24;10.00;99.90
56044;DHT22;41912;51.022;3.664;2024-03-17T06:22:53;10.00;99.90
56044;DHT22;41912;51.022;3.664;2024-03-17T06:25:18;10.00;99.90
56044;DHT22;41912;51.022;3.664;2024-03-17T06:27:44;10.00;99.90
56044;DHT22;41912;51.022;3.664;2024-03-17T06:30:12;10.00;99.90
56044;DHT22;41912;51.022;3.664;2024-03-17T06:32:40;10.00;99.90
56044;DHT22;41912;51.022;3.664;2024-03-17T06:35:07;10.10;99.90
56044;DHT22;41912;51.022;3.664;2024-03-17T06:37:32;10.10;99.90
56044;DHT22;41912;51.022;3.664;2024-03-17T06:39:58;10.10;99.90
56044;DHT22;41912;51.022;3.664;2024-03-17T06:42:24;10.10;99.90
56044;DHT22;41912;51.022;3.664;2024-03-17T06:44:49;10.10;99.90
56044;DHT22;41912;51.022;3.664;2024-03-17T06:47:15;10.10;99.90
56044;DHT22;41912;51.022;3.664;2024-03-17T06:49:40;10.20;99.90
56044;DHT22;41912;51.022;3.664;2024-03-17T06:52:08;10.20;99.90
56044;DHT22;41912;51.022;3.664;2024-03-17T06:54:33;10.20;99.90
56044;DHT22;41912;51.022;3.664;2024-03-17T06:56:59;10.20;99.90
56044;DHT22;41912;51.022;3.664;2024-03-17T06:59:25;10.20;99.90
56044;DHT22;41912;51.022;3.664;2024-03-17T07:01:51;10.30;99.90
56044;DHT22;41912;51.022;3.664;2024-03-17T07:04:16;10.30;99.90
56044;DHT22;41912;51.022;3.664;2024-03-17T07:06:42;10.30;99.90
56044;DHT22;41912;51.022;3.664;2024-03-17T07:09:08;10.30;99.90
56044;DHT22;41912;51.022;3.664;2024-03-17T07:11:34;10.30;99.90
56044;DHT22;41912;51.022;3.664;2024-03-17T07:14:00;10.40;99.90
56044;DHT22;41912;51.022;3.664;2024-03-17T07:16:26;10.30;99.90
56044;DHT22;41912;51.022;3.664;2024-03-17T07:18:52;10.30;99.90
56044;DHT22;41912;51.022;3.664;2024-03-17T07:21:18;10.40;99.90
56044;DHT22;41912;51.022;3.664;2024-03-17T07:23:44;10.40;99.90
56044;DHT22;41912;51.022;3.664;2024-03-17T07:26:10;10.40;99.90
56044;DHT22;41912;51.022;3.664;2024-03-17T07:28:36;10.50;99.90
56044;DHT22;41912;51.022;3.664;2024-03-17T07:31:08;10.50;99.90
56044;DHT22;41912;51.022;3.664;2024-03-17T07:33:35;10.50;99.90
56044;DHT22;41912;51.022;3.664;2024-03-17T07:36:00;10.50;99.90
56044;DHT22;41912;51.022;3.664;2024-03-17T07:38:27;10.50;99.90
56044;DHT22;41912;51.022;3.664;2024-03-17T07:43:24;10.50;99.90
56044;DHT22;41912;51.022;3.664;2024-03-17T07:48:33;10.50;99.90
56044;DHT22;41912;51.022;3.664;2024-03-17T07:51:00;10.50;99.90
56044;DHT22;41912;51.022;3.664;2024-03-17T07:53:29;10.50;99.90
56044;DHT22;41912;51.022;3.664;2024-03-17T07:56:04;10.60;99.90
56044;DHT22;41912;51.022;3.664;2024-03-17T07:58:31;10.60;99.90
56044;DHT22;41912;51.022;3.664;2024-03-17T08:01:00;10.60;99.90
56044;DHT22;41912;51.022;3.664;2024-03-17T08:03:28;10.70;99.90
56044;DHT22;41912;51.022;3.664;2024-03-17T08:05:54;10.70;99.90
56044;DHT22;41912;51.022;3.664;2024-03-17T08:08:20;10.70;99.90
56044;DHT22;41912;51.022;3.664;2024-03-17T08:10:45;10.70;99.90
56044;DHT22;41912;51.022;3.664;2024-03-17T08:13:14;10.80;99.90
56044;DHT22;41912;51.022;3.664;2024-03-17T08:15:42;10.80;99.90
56044;DHT22;41912;51.022;3.664;2024-03-17T08:18:08;10.80;99.90
56044;DHT22;41912;51.022;3.664;2024-03-17T08:23:05;10.90;99.90
56044;DHT22;41912;51.022;3.664;2024-03-17T08:25:31;10.90;99.90
56044;DHT22;41912;51.022;3.664;2024-03-17T08:27:57;10.90;99.90
56044;DHT22;41912;51.022;3.664;2024-03-17T08:30:23;10.90;99.90
56044;DHT22;41912;51.022;3.664;2024-03-17T08:32:48;11.00;99.90
56044;DHT22;41912;51.022;3.664;2024-03-17T08:35:14;11.00;99.90
56044;DHT22;41912;51.022;3.664;2024-03-17T08:37:40;11.10;99.90
56044;DHT22;41912;51.022;3.664;2024-03-17T08:40:06;11.10;99.90
56044;DHT22;41912;51.022;3.664;2024-03-17T08:42:32;11.10;99.90
56044;DHT22;41912;51.022;3.664;2024-03-17T08:44:58;11.10;99.90
56044;DHT22;41912;51.022;3.664;2024-03-17T08:47:23;11.10;99.90
56044;DHT22;41912;51.022;3.664;2024-03-17T08:49:52;11.20;99.90
56044;DHT22;41912;51.022;3.664;2024-03-17T08:52:18;11.20;99.90
56044;DHT22;41912;51.022;3.664;2024-03-17T08:54:47;11.20;99.90
56044;DHT22;41912;51.022;3.664;2024-03-17T08:57:13;11.20;99.90
56044;DHT22;41912;51.022;3.664;2024-03-17T08:59:39;11.20;99.90
56044;DHT22;41912;51.022;3.664;2024-03-17T09:02:05;11.20;99.90
56044;DHT22;41912;51.022;3.664;2024-03-17T09:04:37;11.20;99.90
56044;DHT22;41912;51.022;3.664;2024-03-17T09:07:02;11.30;99.90
56044;DHT22;41912;51.022;3.664;2024-03-17T09:09:29;11.20;99.90
56044;DHT22;41912;51.022;3.664;2024-03-17T09:11:55;11.30;99.90
56044;DHT22;41912;51.022;3.664;2024-03-17T09:14:20;11.20;99.90
56044;DHT22;41912;51.022;3.664;2024-03-17T09:16:47;11.30;99.90
56044;DHT22;41912;51.022;3.664;2024-03-17T09:19:13;11.30;99.90
56044;DHT22;41912;51.022;3.664;2024-03-17T09:21:38;11.30;99.90
56044;DHT22;41912;51.022;3.664;2024-03-17T09:24:06;11.30;99.90
56044;DHT22;41912;51.022;3.664;2024-03-17T09:26:33;11.40;99.90
56044;DHT22;41912;51.022;3.664;2024-03-17T09:29:04;11.40;99.90
56044;DHT22;41912;51.022;3.664;2024-03-17T09:31:29;11.40;99.90
56044;DHT22;41912;51.022;3.664;2024-03-17T09:33:56;11.40;99.90
56044;DHT22;41912;51.022;3.664;2024-03-17T09:36:21;11.40;99.90
56044;DHT22;41912;51.022;3.664;2024-03-17T09:38:47;11.50;99.90
56044;DHT22;41912;51.022;3.664;2024-03-17T09:41:24;11.50;99.90
56044;DHT22;41912;51.022;3.664;2024-03-17T09:43:54;11.50;99.90
56044;DHT22;41912;51.022;3.664;2024-03-17T09:46:23;11.50;99.90
56044;DHT22;41912;51.022;3.664;2024-03-17T09:48:49;11.50;99.90
56044;DHT22;41912;51.022;3.664;2024-03-17T09:51:23;11.60;99.90
56044;DHT22;41912;51.022;3.664;2024-03-17T09:53:49;11.60;99.90
56044;DHT22;41912;51.022;3.664;2024-03-17T09:56:16;11.60;99.90
56044;DHT22;41912;51.022;3.664;2024-03-17T09:58:48;11.70;99.90
56044;DHT22;41912;51.022;3.664;2024-03-17T10:01:14;11.70;99.90
56044;DHT22;41912;51.022;3.664;2024-03-17T10:03:53;11.80;99.90
56044;DHT22;41912;51.022;3.664;2024-03-17T10:06:29;11.90;99.90
56044;DHT22;41912;51.022;3.664;2024-03-17T10:08:56;11.80;99.90
56044;DHT22;41912;51.022;3.664;2024-03-17T10:11:33;11.90;99.90
56044;DHT22;41912;51.022;3.664;2024-03-17T10:14:04;11.90;99.90
56044;DHT22;41912;51.022;3.664;2024-03-17T10:16:31;11.90;99.90
56044;DHT22;41912;51.022;3.664;2024-03-17T10:19:07;12.00;99.90
56044;DHT22;41912;51.022;3.664;2024-03-17T10:21:33;12.00;99.90
56044;DHT22;41912;51.022;3.664;2024-03-17T10:24:11;12.00;99.90
56044;DHT22;41912;51.022;3.664;2024-03-17T10:26:58;12.10;99.90
56044;DHT22;41912;51.022;3.664;2024-03-17T10:29:27;12.10;99.90
56044;DHT22;41912;51.022;3.664;2024-03-17T10:32:04;12.10;99.90
56044;DHT22;41912;51.022;3.664;2024-03-17T10:34:38;12.20;99.90
56044;DHT22;41912;51.022;3.664;2024-03-17T10:39:42;12.30;99.90
56044;DHT22;41912;51.022;3.664;2024-03-17T10:42:09;12.40;99.90
56044;DHT22;41912;51.022;3.664;2024-03-17T10:44:37;12.50;99.90
56044;DHT22;41912;51.022;3.664;2024-03-17T10:47:04;12.60;99.90
56044;DHT22;41912;51.022;3.664;2024-03-17T10:49:36;12.60;99.90
56044;DHT22;41912;51.022;3.664;2024-03-17T10:52:07;12.70;99.90
56044;DHT22;41912;51.022;3.664;2024-03-17T10:54:34;12.70;99.90
56044;DHT22;41912;51.022;3.664;2024-03-17T10:59:57;12.80;99.90
56044;DHT22;41912;51.022;3.664;2024-03-17T11:02:25;12.80;99.90
56044;DHT22;41912;51.022;3.664;2024-03-17T11:04:58;12.80;99.90
56044;DHT22;41912;51.022;3.664;2024-03-17T11:07:24;12.90;99.90
56044;DHT22;41912;51.022;3.664;2024-03-17T11:09:53;12.80;99.90
56044;DHT22;41912;51.022;3.664;2024-03-17T11:17:50;13.00;99.90
56044;DHT22;41912;51.022;3.664;2024-03-17T11:20:28;13.10;99.90
56044;DHT22;41912;51.022;3.664;2024-03-17T11:22:58;13.20;99.90
56044;DHT22;41912;51.022;3.664;2024-03-17T11:28:00;13.20;99.90
56044;DHT22;41912;51.022;3.664;2024-03-17T11:39:01;13.50;99.90
56044;DHT22;41912;51.022;3.664;2024-03-17T11:44:23;13.60;99.90
56044;DHT22;41912;51.022;3.664;2024-03-17T11:47:06;13.80;99.90
56044;DHT22;41912;51.022;3.664;2024-03-17T11:52:04;13.90;99.90
56044;DHT22;41912;51.022;3.664;2024-03-17T11:54:33;14.00;99.90
56044;DHT22;41912;51.022;3.664;2024-03-17T11:57:07;14.00;99.90
56044;DHT22;41912;51.022;3.664;2024-03-17T11:59:34;14.10;99.90
56044;DHT22;41912;51.022;3.664;2024-03-17T12:02:00;14.10;99.90
56044;DHT22;41912;51.022;3.664;2024-03-17T12:04:27;14.20;99.90
56044;DHT22;41912;51.022;3.664;2024-03-17T12:06:55;14.20;99.90
56044;DHT22;41912;51.022;3.664;2024-03-17T12:09:31;14.30;99.90
56044;DHT22;41912;51.022;3.664;2024-03-17T12:12:05;14.40;99.90
56044;DHT22;41912;51.022;3.664;2024-03-17T12:14:32;14.40;99.90
56044;DHT22;41912;51.022;3.664;2024-03-17T12:17:03;14.50;99.90
56044;DHT22;41912;51.022;3.664;2024-03-17T12:19:30;14.50;99.90
56044;DHT22;41912;51.022;3.664;2024-03-17T12:21:57;14.50;99.90
56044;DHT22;41912;51.022;3.664;2024-03-17T12:24:30;14.60;99.90
56044;DHT22;41912;51.022;3.664;2024-03-17T12:26:57;14.60;99.90
56044;DHT22;41912;51.022;3.664;2024-03-17T12:32:02;14.60;99.90
56044;DHT22;41912;51.022;3.664;2024-03-17T12:34:30;14.60;99.90
56044;DHT22;41912;51.022;3.664;2024-03-17T12:36:57;14.70;99.90
56044;DHT22;41912;51.022;3.664;2024-03-17T12:39:25;14.70;99.90
56044;DHT22;41912;51.022;3.664;2024-03-17T12:42:02;14.70;99.90
56044;DHT22;41912;51.022;3.664;2024-03-17T12:44:39;14.80;99.90
56044;DHT22;41912;51.022;3.664;2024-03-17T12:47:14;14.90;99.90
56044;DHT22;41912;51.022;3.664;2024-03-17T12:49:45;14.90;99.90
56044;DHT22;41912;51.022;3.664;2024-03-17T12:52:29;14.90;99.90
56044;DHT22;41912;51.022;3.664;2024-03-17T12:55:06;14.90;99.90
56044;DHT22;41912;51.022;3.664;2024-03-17T12:57:52;15.00;99.90
56044;DHT22;41912;51.022;3.664;2024-03-17T13:00:37;14.90;99.90
56044;DHT22;41912;51.022;3.664;2024-03-17T13:03:05;15.00;99.90
56044;DHT22;41912;51.022;3.664;2024-03-17T13:05:36;15.00;99.90
56044;DHT22;41912;51.022;3.664;2024-03-17T13:08:02;15.10;99.90
56044;DHT22;41912;51.022;3.664;2024-03-17T13:10:29;15.10;99.90
56044;DHT22;41912;51.022;3.664;2024-03-17T13:13:02;15.10;99.90
56044;DHT22;41912;51.022;3.664;2024-03-17T13:15:29;15.10;99.90
56044;DHT22;41912;51.022;3.664;2024-03-17T13:17:58;15.10;99.90
56044;DHT22;41912;51.022;3.664;2024-03-17T13:20:24;15.10;99.90
56044;DHT22;41912;51.022;3.664;2024-03-17T13:22:50;15.10;99.90
56044;DHT22;41912;51.022;3.664;2024-03-17T13:25:23;15.10;99.90
56044;DHT22;41912;51.022;3.664;2024-03-17T13:27:51;15.20;99.90
56044;DHT22;41912;51.022;3.664;2024-03-17T13:30:19;15.20;99.90
56044;DHT22;41912;51.022;3.664;2024-03-17T13:32:46;15.20;99.90
56044;DHT22;41912;51.022;3.664;2024-03-17T13:35:22;15.20;99.90
56044;DHT22;41912;51.022;3.664;2024-03-17T13:37:49;15.20;99.90
56044;DHT22;41912;51.022;3.664;2024-03-17T13:40:18;15.20;99.90
56044;DHT22;41912;51.022;3.664;2024-03-17T13:42:45;15.10;99.90
56044;DHT22;41912;51.022;3.664;2024-03-17T13:45:12;15.20;99.90
56044;DHT22;41912;51.022;3.664;2024-03-17T13:47:42;15.20;99.90
56044;DHT22;41912;51.022;3.664;2024-03-17T13:50:11;15.20;99.90
56044;DHT22;41912;51.022;3.664;2024-03-17T13:52:41;15.20;99.90
56044;DHT22;41912;51.022;3.664;2024-03-17T13:55:13;15.20;99.90
56044;DHT22;41912;51.022;3.664;2024-03-17T13:57:39;15.20;99.90
56044;DHT22;41912;51.022;3.664;2024-03-17T14:00:06;15.10;99.90
56044;DHT22;41912;51.022;3.664;2024-03-17T14:02:33;15.10;99.90
56044;DHT22;41912;51.022;3.664;2024-03-17T14:04:59;15.00;99.90
56044;DHT22;41912;51.022;3.664;2024-03-17T14:07:25;15.00;99.90
56044;DHT22;41912;51.022;3.664;2024-03-17T14:09:51;15.00;99.90
56044;DHT22;41912;51.022;3.664;2024-03-17T14:12:17;15.00;99.90
56044;DHT22;41912;51.022;3.664;2024-03-17T14:14:42;15.00;99.90
56044;DHT22;41912;51.022;3.664;2024-03-17T14:17:11;15.00;99.90
56044;DHT22;41912;51.022;3.664;2024-03-17T14:19:36;15.00;99.90
56044;DHT22;41912;51.022;3.664;2024-03-17T14:22:02;15.00;99.90
56044;DHT22;41912;51.022;3.664;2024-03-17T14:24:27;15.00;99.90
56044;DHT22;41912;51.022;3.664;2024-03-17T14:26:54;15.00;99.90
56044;DHT22;41912;51.022;3.664;2024-03-17T14:29:19;15.00;99.90
56044;DHT22;41912;51.022;3.664;2024-03-17T14:31:45;15.10;99.90
56044;DHT22;41912;51.022;3.664;2024-03-17T14:34:11;15.10;99.90
56044;DHT22;41912;51.022;3.664;2024-03-17T14:36:37;15.20;99.90
56044;DHT22;41912;51.022;3.664;2024-03-17T14:39:03;15.30;99.90
56044;DHT22;41912;51.022;3.664;2024-03-17T14:41:30;15.20;99.90
56044;DHT22;41912;51.022;3.664;2024-03-17T14:43:56;15.10;99.90
56044;DHT22;41912;51.022;3.664;2024-03-17T14:46:23;15.10;99.90
56044;DHT22;41912;51.022;3.664;2024-03-17T14:48:49;15.10;99.90
56044;DHT22;41912;51.022;3.664;2024-03-17T14:51:17;15.10;99.90
56044;DHT22;41912;51.022;3.664;2024-03-17T14:53:42;15.10;99.90
56044;DHT22;41912;51.022;3.664;2024-03-17T14:56:14;15.10;99.90
56044;DHT22;41912;51.022;3.664;2024-03-17T14:58:40;15.10;99.90
56044;DHT22;41912;51.022;3.664;2024-03-17T15:01:06;15.10;99.90
56044;DHT22;41912;51.022;3.664;2024-03-17T15:03:37;15.10;99.90
56044;DHT22;41912;51.022;3.664;2024-03-17T15:06:12;15.10;99.90
56044;DHT22;41912;51.022;3.664;2024-03-17T15:08:38;15.10;99.90
56044;DHT22;41912;51.022;3.664;2024-03-17T15:11:03;15.10;99.90
56044;DHT22;41912;51.022;3.664;2024-03-17T15:13:29;15.10;99.90
56044;DHT22;41912;51.022;3.664;2024-03-17T15:15:55;15.10;99.90
56044;DHT22;41912;51.022;3.664;2024-03-17T15:18:21;15.10;99.90
56044;DHT22;41912;51.022;3.664;2024-03-17T15:20:53;15.10;99.90
56044;DHT22;41912;51.022;3.664;2024-03-17T15:23:21;15.10;99.90
56044;DHT22;41912;51.022;3.664;2024-03-17T15:25:46;15.10;99.90
56044;DHT22;41912;51.022;3.664;2024-03-17T15:28:12;15.00;99.90
56044;DHT22;41912;51.022;3.664;2024-03-17T15:30:38;15.00;99.90
56044;DHT22;41912;51.022;3.664;2024-03-17T15:33:04;15.00;99.90
56044;DHT22;41912;51.022;3.664;2024-03-17T15:35:29;15.00;99.90
56044;DHT22;41912;51.022;3.664;2024-03-17T15:37:57;15.00;99.90
56044;DHT22;41912;51.022;3.664;2024-03-17T15:40:22;15.00;99.90
56044;DHT22;41912;51.022;3.664;2024-03-17T15:42:49;14.90;99.90
56044;DHT22;41912;51.022;3.664;2024-03-17T15:45:16;14.90;99.90
56044;DHT22;41912;51.022;3.664;2024-03-17T15:47:43;14.80;99.90
56044;DHT22;41912;51.022;3.664;2024-03-17T15:50:10;14.80;99.90
56044;DHT22;41912;51.022;3.664;2024-03-17T15:52:36;14.80;99.90
56044;DHT22;41912;51.022;3.664;2024-03-17T15:55:02;14.80;99.90
56044;DHT22;41912;51.022;3.664;2024-03-17T15:57:29;14.80;99.90
56044;DHT22;41912;51.022;3.664;2024-03-17T15:59:55;14.80;99.90
56044;DHT22;41912;51.022;3.664;2024-03-17T16:02:21;14.80;99.90
56044;DHT22;41912;51.022;3.664;2024-03-17T16:04:49;14.80;99.90
56044;DHT22;41912;51.022;3.664;2024-03-17T16:07:17;14.90;99.90
56044;DHT22;41912;51.022;3.664;2024-03-17T16:09:43;14.80;99.90
56044;DHT22;41912;51.022;3.664;2024-03-17T16:12:09;14.80;99.90
56044;DHT22;41912;51.022;3.664;2024-03-17T16:14:35;14.80;99.90